PWSweather.com
Personal Weather Stations
Station Observations
SD92115WX
El Cerrito Stoneybluff, San Diego, CA 92115

El Cerrito StoneybluffSan Diego, CA 92115

Lat: 32.754096, Lon: -117.066705

Elevation: 420

Station Type: Davis Vantage Vue

http://stoneybluff.com

High Low Average
Temperature 62.6°F17.0°C 50.4°F10.2°C 55.0°F12.8°C
Dew Point 55.2°F12.9°C 48.0°F8.9°C 49.9°F9.9°C
Winds 7.8 mph 12.6 kmh Calm Calm 2.0 mph SW3.2 kmh SW
Wind Gusts 13.9 mph22.4 kmh -- 4.0 mph6.4 kmh
Humidity 94% 62% 84%
Pressure 30.11 in1019.6 mb 29.88 in1011.9 mb -
Precipitation 0.06 in1.5 mm - -
Hour Temp Dew Point Humidity Winds Wind Gusts Pressure Precip Precip Rate Daily Precip Total
12:03 AM 51.1°F10.6°C 49.1°F9.5°C 93% Calm Calm -- 29.90 in1012.5 mb 0.00 in0.0 mm 0.00 in0.0 mm 0.00 in0.0 mm
12:08 AM 51.1°F10.6°C 49.1°F9.5°C 93% Calm Calm -- 29.90 in1012.5 mb 0.00 in0.0 mm 0.00 in0.0 mm 0.00 in0.0 mm
12:13 AM 51.1°F10.6°C 49.1°F9.5°C 93% Calm Calm -- 29.90 in1012.5 mb 0.00 in0.0 mm 0.00 in0.0 mm 0.00 in0.0 mm
12:18 AM 51.1°F10.6°C 49.1°F9.5°C 93% Calm Calm -- 29.90 in1012.5 mb 0.00 in0.0 mm 0.00 in0.0 mm 0.00 in0.0 mm
12:23 AM 51.1°F10.6°C 49.1°F9.5°C 93% Calm Calm 1.1 mph1.8 kmh 29.90 in1012.5 mb 0.00 in0.0 mm 0.00 in0.0 mm 0.00 in0.0 mm
12:28 AM 51.1°F10.6°C 49.1°F9.5°C 93% Calm Calm -- 29.90 in1012.5 mb 0.00 in0.0 mm 0.00 in0.0 mm 0.00 in0.0 mm
12:33 AM 51.1°F10.6°C 49.1°F9.5°C 93% Calm Calm -- 29.90 in1012.5 mb 0.00 in0.0 mm 0.00 in0.0 mm 0.00 in0.0 mm
12:38 AM 51.1°F10.6°C 49.1°F9.5°C 93% Calm Calm -- 29.89 in1012.2 mb 0.00 in0.0 mm 0.00 in0.0 mm 0.00 in0.0 mm
12:43 AM 51.1°F10.6°C 49.1°F9.5°C 93% Calm Calm 1.1 mph1.8 kmh 29.89 in1012.2 mb 0.00 in0.0 mm 0.00 in0.0 mm 0.00 in0.0 mm
12:48 AM 51.1°F10.6°C 49.1°F9.5°C 93% Calm Calm -- 29.89 in1012.2 mb 0.00 in0.0 mm 0.00 in0.0 mm 0.00 in0.0 mm
12:53 AM 51.1°F10.6°C 49.1°F9.5°C 93% Calm Calm -- 29.89 in1012.2 mb 0.00 in0.0 mm 0.00 in0.0 mm 0.00 in0.0 mm
12:58 AM 51.1°F10.6°C 49.1°F9.5°C 93% Calm Calm -- 29.89 in1012.2 mb 0.00 in0.0 mm 0.00 in0.0 mm 0.00 in0.0 mm
01:03 AM 51.1°F10.6°C 49.1°F9.5°C 93% Calm Calm -- 29.89 in1012.2 mb 0.00 in0.0 mm 0.00 in0.0 mm 0.00 in0.0 mm
01:08 AM 51.1°F10.6°C 49.1°F9.5°C 93% Calm Calm -- 29.89 in1012.2 mb 0.00 in0.0 mm 0.00 in0.0 mm 0.00 in0.0 mm
01:13 AM 51.1°F10.6°C 49.1°F9.5°C 93% Calm Calm -- 29.89 in1012.2 mb 0.00 in0.0 mm 0.00 in0.0 mm 0.00 in0.0 mm
01:18 AM 51.1°F10.6°C 49.1°F9.5°C 93% Calm Calm -- 29.88 in1011.9 mb 0.00 in0.0 mm 0.00 in0.0 mm 0.00 in0.0 mm
01:23 AM 50.7°F10.4°C 48.7°F9.3°C 93% Calm Calm -- 29.88 in1011.9 mb 0.00 in0.0 mm 0.00 in0.0 mm 0.00 in0.0 mm
01:28 AM 50.5°F10.3°C 48.6°F9.2°C 93% Calm Calm -- 29.88 in1011.9 mb 0.00 in0.0 mm 0.00 in0.0 mm 0.00 in0.0 mm
01:33 AM 50.5°F10.3°C 48.6°F9.2°C 93% Calm Calm -- 29.88 in1011.9 mb 0.00 in0.0 mm 0.00 in0.0 mm 0.00 in0.0 mm
01:38 AM 50.4°F10.2°C 48.4°F9.1°C 93% Calm Calm -- 29.88 in1011.9 mb 0.00 in0.0 mm 0.00 in0.0 mm 0.00 in0.0 mm
01:43 AM 50.4°F10.2°C 48.7°F9.3°C 94% Calm Calm -- 29.88 in1011.9 mb 0.00 in0.0 mm 0.00 in0.0 mm 0.00 in0.0 mm
01:48 AM 50.4°F10.2°C 48.7°F9.3°C 94% Calm Calm -- 29.89 in1012.2 mb 0.00 in0.0 mm 0.00 in0.0 mm 0.00 in0.0 mm
01:53 AM 50.5°F10.3°C 48.9°F9.4°C 94% 0.2 mph SE0.3 kmh SE 2.0 mph3.2 kmh 29.88 in1011.9 mb 0.00 in0.0 mm 0.00 in0.0 mm 0.00 in0.0 mm
01:58 AM 50.5°F10.3°C 48.9°F9.4°C 94% 0.2 mph ESE0.3 kmh ESE 2.0 mph3.2 kmh 29.88 in1011.9 mb 0.00 in0.0 mm 0.00 in0.0 mm 0.00 in0.0 mm
02:03 AM 50.7°F10.4°C 49.1°F9.5°C 94% 0.2 mph SE0.3 kmh SE 1.1 mph1.8 kmh 29.88 in1011.9 mb 0.00 in0.0 mm 0.00 in0.0 mm 0.00 in0.0 mm
02:08 AM 50.7°F10.4°C 49.1°F9.5°C 94% 2.0 mph SE3.2 kmh SE 7.4 mph11.9 kmh 29.89 in1012.2 mb 0.00 in0.0 mm 0.00 in0.0 mm 0.00 in0.0 mm
02:13 AM 50.7°F10.4°C 49.1°F9.5°C 94% 0.4 mph SE0.6 kmh SE 3.1 mph5.0 kmh 29.89 in1012.2 mb 0.00 in0.0 mm 0.00 in0.0 mm 0.00 in0.0 mm
02:18 AM 50.7°F10.4°C 49.1°F9.5°C 94% Calm Calm 1.1 mph1.8 kmh 29.88 in1011.9 mb 0.00 in0.0 mm 0.00 in0.0 mm 0.00 in0.0 mm
02:23 AM 50.7°F10.4°C 49.1°F9.5°C 94% 0.2 mph SE0.3 kmh SE 1.1 mph1.8 kmh 29.89 in1012.2 mb 0.00 in0.0 mm 0.00 in0.0 mm 0.00 in0.0 mm
02:28 AM 50.5°F10.3°C 48.9°F9.4°C 94% 1.1 mph SE1.8 kmh SE 5.4 mph8.7 kmh 29.89 in1012.2 mb 0.00 in0.0 mm 0.00 in0.0 mm 0.00 in0.0 mm
02:33 AM 50.5°F10.3°C 48.9°F9.4°C 94% 0.2 mph SE0.3 kmh SE 4.3 mph6.9 kmh 29.89 in1012.2 mb 0.00 in0.0 mm 0.00 in0.0 mm 0.00 in0.0 mm
02:38 AM 50.5°F10.3°C 48.9°F9.4°C 94% 0.9 mph SE1.4 kmh SE 3.1 mph5.0 kmh 29.89 in1012.2 mb 0.00 in0.0 mm 0.00 in0.0 mm 0.00 in0.0 mm
02:43 AM 50.5°F10.3°C 48.9°F9.4°C 94% 0.2 mph SE0.3 kmh SE 2.0 mph3.2 kmh 29.89 in1012.2 mb 0.00 in0.0 mm 0.00 in0.0 mm 0.00 in0.0 mm
02:48 AM 50.5°F10.3°C 48.9°F9.4°C 94% Calm Calm 1.1 mph1.8 kmh 29.89 in1012.2 mb 0.00 in0.0 mm 0.00 in0.0 mm 0.00 in0.0 mm
02:53 AM 50.5°F10.3°C 48.9°F9.4°C 94% Calm Calm 1.1 mph1.8 kmh 29.89 in1012.2 mb 0.00 in0.0 mm 0.00 in0.0 mm 0.00 in0.0 mm
02:58 AM 50.5°F10.3°C 48.9°F9.4°C 94% Calm Calm 1.1 mph1.8 kmh 29.88 in1011.9 mb 0.00 in0.0 mm 0.00 in0.0 mm 0.00 in0.0 mm
03:03 AM 50.5°F10.3°C 48.9°F9.4°C 94% Calm Calm -- 29.88 in1011.9 mb 0.00 in0.0 mm 0.00 in0.0 mm 0.00 in0.0 mm
03:08 AM 50.5°F10.3°C 48.9°F9.4°C 94% Calm Calm 1.1 mph1.8 kmh 29.89 in1012.2 mb 0.00 in0.0 mm 0.00 in0.0 mm 0.00 in0.0 mm
03:13 AM 50.5°F10.3°C 48.9°F9.4°C 94% 0.2 mph S0.3 kmh S 2.0 mph3.2 kmh 29.88 in1011.9 mb 0.00 in0.0 mm 0.00 in0.0 mm 0.00 in0.0 mm
03:18 AM 50.5°F10.3°C 48.9°F9.4°C 94% 0.2 mph SE0.3 kmh SE 2.0 mph3.2 kmh 29.88 in1011.9 mb 0.00 in0.0 mm 0.00 in0.0 mm 0.00 in0.0 mm
03:23 AM 50.5°F10.3°C 48.9°F9.4°C 94% Calm Calm -- 29.89 in1012.2 mb 0.00 in0.0 mm 0.00 in0.0 mm 0.00 in0.0 mm
03:28 AM 50.7°F10.4°C 49.1°F9.5°C 94% Calm Calm 1.1 mph1.8 kmh 29.89 in1012.2 mb 0.01 in0.3 mm 0.12 in3.0 mm 0.01 in0.3 mm
03:33 AM 50.7°F10.4°C 49.1°F9.5°C 94% Calm Calm -- 29.89 in1012.2 mb 0.01 in0.3 mm 0.00 in0.0 mm 0.01 in0.3 mm
03:38 AM 50.7°F10.4°C 49.1°F9.5°C 94% 0.7 mph SE1.1 kmh SE 2.0 mph3.2 kmh 29.88 in1011.9 mb 0.02 in0.5 mm 0.12 in3.0 mm 0.02 in0.5 mm
03:43 AM 50.7°F10.4°C 49.1°F9.5°C 94% 2.0 mph SE3.2 kmh SE 5.4 mph8.7 kmh 29.88 in1011.9 mb 0.03 in0.8 mm 0.12 in3.0 mm 0.03 in0.8 mm
03:48 AM 50.5°F10.3°C 48.9°F9.4°C 94% 0.2 mph SSE0.3 kmh SSE 4.3 mph6.9 kmh 29.89 in1012.2 mb 0.03 in0.8 mm 0.00 in0.0 mm 0.03 in0.8 mm
03:53 AM 50.5°F10.3°C 48.9°F9.4°C 94% Calm Calm 2.0 mph3.2 kmh 29.89 in1012.2 mb 0.03 in0.8 mm 0.00 in0.0 mm 0.03 in0.8 mm
03:58 AM 50.5°F10.3°C 48.9°F9.4°C 94% Calm Calm -- 29.89 in1012.2 mb 0.03 in0.8 mm 0.00 in0.0 mm 0.03 in0.8 mm
04:03 AM 50.5°F10.3°C 48.9°F9.4°C 94% Calm Calm -- 29.89 in1012.2 mb 0.03 in0.8 mm 0.00 in0.0 mm 0.03 in0.8 mm
04:08 AM 50.5°F10.3°C 48.9°F9.4°C 94% Calm Calm -- 29.89 in1012.2 mb 0.03 in0.8 mm 0.00 in0.0 mm 0.03 in0.8 mm
04:13 AM 50.5°F10.3°C 48.9°F9.4°C 94% Calm Calm -- 29.90 in1012.5 mb 0.03 in0.8 mm 0.00 in0.0 mm 0.03 in0.8 mm
04:18 AM 50.5°F10.3°C 48.9°F9.4°C 94% Calm Calm -- 29.89 in1012.2 mb 0.03 in0.8 mm 0.00 in0.0 mm 0.03 in0.8 mm
04:23 AM 50.5°F10.3°C 48.9°F9.4°C 94% Calm Calm -- 29.90 in1012.5 mb 0.03 in0.8 mm 0.00 in0.0 mm 0.03 in0.8 mm
04:28 AM 50.5°F10.3°C 48.9°F9.4°C 94% Calm Calm -- 29.90 in1012.5 mb 0.02 in0.5 mm 0.00 in0.0 mm 0.03 in0.8 mm
04:33 AM 50.5°F10.3°C 48.9°F9.4°C 94% Calm Calm -- 29.90 in1012.5 mb 0.02 in0.5 mm 0.00 in0.0 mm 0.03 in0.8 mm
04:38 AM 50.5°F10.3°C 48.9°F9.4°C 94% Calm Calm -- 29.90 in1012.5 mb 0.01 in0.3 mm 0.00 in0.0 mm 0.03 in0.8 mm
04:43 AM 50.5°F10.3°C 48.9°F9.4°C 94% Calm Calm -- 29.90 in1012.5 mb 0.00 in0.0 mm 0.00 in0.0 mm 0.03 in0.8 mm
04:48 AM 50.5°F10.3°C 48.9°F9.4°C 94% Calm Calm -- 29.90 in1012.5 mb 0.00 in0.0 mm 0.00 in0.0 mm 0.03 in0.8 mm
04:53 AM 50.5°F10.3°C 48.9°F9.4°C 94% Calm Calm -- 29.90 in1012.5 mb 0.00 in0.0 mm 0.00 in0.0 mm 0.03 in0.8 mm
04:58 AM 50.5°F10.3°C 48.9°F9.4°C 94% Calm Calm -- 29.90 in1012.5 mb 0.00 in0.0 mm 0.00 in0.0 mm 0.03 in0.8 mm
05:03 AM 50.5°F10.3°C 48.9°F9.4°C 94% Calm Calm -- 29.90 in1012.5 mb 0.00 in0.0 mm 0.00 in0.0 mm 0.03 in0.8 mm
05:08 AM 50.5°F10.3°C 48.9°F9.4°C 94% Calm Calm -- 29.91 in1012.9 mb 0.00 in0.0 mm 0.00 in0.0 mm 0.03 in0.8 mm
05:13 AM 50.5°F10.3°C 48.9°F9.4°C 94% Calm Calm -- 29.91 in1012.9 mb 0.00 in0.0 mm 0.00 in0.0 mm 0.03 in0.8 mm
05:18 AM 50.5°F10.3°C 48.9°F9.4°C 94% Calm Calm -- 29.91 in1012.9 mb 0.00 in0.0 mm 0.00 in0.0 mm 0.03 in0.8 mm
05:23 AM 50.7°F10.4°C 49.1°F9.5°C 94% Calm Calm -- 29.91 in1012.9 mb 0.00 in0.0 mm 0.00 in0.0 mm 0.03 in0.8 mm
05:28 AM 50.7°F10.4°C 49.1°F9.5°C 94% 0.2 mph SE0.3 kmh SE 1.1 mph1.8 kmh 29.91 in1012.9 mb 0.00 in0.0 mm 0.00 in0.0 mm 0.03 in0.8 mm
05:33 AM 50.9°F10.5°C 49.3°F9.6°C 94% Calm Calm 1.1 mph1.8 kmh 29.92 in1013.2 mb 0.00 in0.0 mm 0.00 in0.0 mm 0.03 in0.8 mm
05:38 AM 51.1°F10.6°C 49.5°F9.7°C 94% Calm Calm 1.1 mph1.8 kmh 29.92 in1013.2 mb 0.00 in0.0 mm 0.00 in0.0 mm 0.03 in0.8 mm
05:43 AM 51.1°F10.6°C 49.5°F9.7°C 94% 0.2 mph SE0.3 kmh SE 2.0 mph3.2 kmh 29.92 in1013.2 mb 0.00 in0.0 mm 0.00 in0.0 mm 0.03 in0.8 mm
05:48 AM 51.1°F10.6°C 49.5°F9.7°C 94% Calm Calm -- 29.92 in1013.2 mb 0.00 in0.0 mm 0.00 in0.0 mm 0.03 in0.8 mm
05:53 AM 51.1°F10.6°C 49.5°F9.7°C 94% 0.7 mph SE1.1 kmh SE 2.0 mph3.2 kmh 29.92 in1013.2 mb 0.00 in0.0 mm 0.00 in0.0 mm 0.03 in0.8 mm
05:58 AM 51.1°F10.6°C 49.5°F9.7°C 94% 0.9 mph SE1.4 kmh SE 3.1 mph5.0 kmh 29.93 in1013.5 mb 0.00 in0.0 mm 0.00 in0.0 mm 0.03 in0.8 mm
06:03 AM 51.1°F10.6°C 49.5°F9.7°C 94% Calm Calm 2.0 mph3.2 kmh 29.93 in1013.5 mb 0.00 in0.0 mm 0.00 in0.0 mm 0.03 in0.8 mm
06:08 AM 51.3°F10.7°C 49.6°F9.8°C 94% Calm Calm -- 29.93 in1013.5 mb 0.00 in0.0 mm 0.00 in0.0 mm 0.03 in0.8 mm
06:13 AM 51.3°F10.7°C 49.6°F9.8°C 94% Calm Calm -- 29.93 in1013.5 mb 0.00 in0.0 mm 0.00 in0.0 mm 0.03 in0.8 mm
06:18 AM 51.4°F10.8°C 49.8°F9.9°C 94% Calm Calm -- 29.93 in1013.5 mb 0.00 in0.0 mm 0.00 in0.0 mm 0.03 in0.8 mm
06:23 AM 51.4°F10.8°C 49.8°F9.9°C 94% Calm Calm -- 29.93 in1013.5 mb 0.00 in0.0 mm 0.00 in0.0 mm 0.03 in0.8 mm
06:28 AM 51.6°F10.9°C 50.0°F10.0°C 94% Calm Calm 1.1 mph1.8 kmh 29.93 in1013.5 mb 0.00 in0.0 mm 0.00 in0.0 mm 0.03 in0.8 mm
06:33 AM 51.8°F11.0°C 50.2°F10.1°C 94% Calm Calm 1.1 mph1.8 kmh 29.93 in1013.5 mb 0.00 in0.0 mm 0.00 in0.0 mm 0.03 in0.8 mm
06:38 AM 51.8°F11.0°C 50.2°F10.1°C 94% Calm Calm 1.1 mph1.8 kmh 29.94 in1013.9 mb 0.00 in0.0 mm 0.00 in0.0 mm 0.03 in0.8 mm
06:43 AM 52.0°F11.1°C 50.4°F10.2°C 94% Calm Calm -- 29.94 in1013.9 mb 0.00 in0.0 mm 0.00 in0.0 mm 0.03 in0.8 mm
06:48 AM 52.0°F11.1°C 50.4°F10.2°C 94% Calm Calm 2.0 mph3.2 kmh 29.94 in1013.9 mb 0.00 in0.0 mm 0.00 in0.0 mm 0.03 in0.8 mm
06:53 AM 52.0°F11.1°C 50.4°F10.2°C 94% 0.2 mph NE0.3 kmh NE 1.1 mph1.8 kmh 29.94 in1013.9 mb 0.00 in0.0 mm 0.00 in0.0 mm 0.03 in0.8 mm
06:58 AM 52.2°F11.2°C 50.5°F10.3°C 94% Calm Calm -- 29.95 in1014.2 mb 0.00 in0.0 mm 0.00 in0.0 mm 0.03 in0.8 mm
07:03 AM 52.2°F11.2°C 50.5°F10.3°C 94% Calm Calm 4.3 mph6.9 kmh 29.95 in1014.2 mb 0.00 in0.0 mm 0.00 in0.0 mm 0.03 in0.8 mm
07:08 AM 52.2°F11.2°C 50.5°F10.3°C 94% 0.4 mph ESE0.6 kmh ESE 3.1 mph5.0 kmh 29.95 in1014.2 mb 0.00 in0.0 mm 0.00 in0.0 mm 0.03 in0.8 mm
07:13 AM 52.3°F11.3°C 50.7°F10.4°C 94% Calm Calm 2.0 mph3.2 kmh 29.95 in1014.2 mb 0.00 in0.0 mm 0.00 in0.0 mm 0.03 in0.8 mm
07:18 AM 52.3°F11.3°C 50.7°F10.4°C 94% Calm Calm -- 29.95 in1014.2 mb 0.00 in0.0 mm 0.00 in0.0 mm 0.03 in0.8 mm
07:23 AM 52.5°F11.4°C 50.9°F10.5°C 94% Calm Calm 2.0 mph3.2 kmh 29.95 in1014.2 mb 0.00 in0.0 mm 0.00 in0.0 mm 0.03 in0.8 mm
07:28 AM 52.9°F11.6°C 51.3°F10.7°C 94% Calm Calm -- 29.95 in1014.2 mb 0.00 in0.0 mm 0.00 in0.0 mm 0.03 in0.8 mm
07:33 AM 52.9°F11.6°C 51.3°F10.7°C 94% 0.4 mph SSW0.6 kmh SSW 2.0 mph3.2 kmh 29.96 in1014.6 mb 0.00 in0.0 mm 0.00 in0.0 mm 0.03 in0.8 mm
07:38 AM 53.1°F11.7°C 51.1°F10.6°C 93% 0.7 mph SE1.1 kmh SE 3.1 mph5.0 kmh 29.96 in1014.6 mb 0.00 in0.0 mm 0.00 in0.0 mm 0.03 in0.8 mm
07:43 AM 53.1°F11.7°C 51.1°F10.6°C 93% 1.1 mph SE1.8 kmh SE 3.1 mph5.0 kmh 29.96 in1014.6 mb 0.00 in0.0 mm 0.00 in0.0 mm 0.03 in0.8 mm
07:48 AM 53.1°F11.7°C 51.1°F10.6°C 93% 1.8 mph SSE2.9 kmh SSE 4.3 mph6.9 kmh 29.96 in1014.6 mb 0.00 in0.0 mm 0.00 in0.0 mm 0.03 in0.8 mm
07:53 AM 53.2°F11.8°C 51.3°F10.7°C 93% 2.5 mph SSE4.0 kmh SSE 5.4 mph8.7 kmh 29.96 in1014.6 mb 0.00 in0.0 mm 0.00 in0.0 mm 0.03 in0.8 mm
07:58 AM 53.2°F11.8°C 51.3°F10.7°C 93% 1.6 mph SE2.6 kmh SE 4.3 mph6.9 kmh 29.96 in1014.6 mb 0.00 in0.0 mm 0.00 in0.0 mm 0.03 in0.8 mm
08:03 AM 53.2°F11.8°C 50.9°F10.5°C 92% 2.7 mph SSE4.3 kmh SSE 5.4 mph8.7 kmh 29.96 in1014.6 mb 0.00 in0.0 mm 0.00 in0.0 mm 0.03 in0.8 mm
08:08 AM 53.4°F11.9°C 51.4°F10.8°C 93% 0.7 mph SSE1.1 kmh SSE 3.1 mph5.0 kmh 29.96 in1014.6 mb 0.00 in0.0 mm 0.00 in0.0 mm 0.03 in0.8 mm
08:13 AM 53.6°F12.0°C 51.3°F10.7°C 92% 2.9 mph SSE4.7 kmh SSE 5.4 mph8.7 kmh 29.96 in1014.6 mb 0.00 in0.0 mm 0.00 in0.0 mm 0.03 in0.8 mm
08:18 AM 54.0°F12.2°C 51.6°F10.9°C 92% Calm Calm 3.1 mph5.0 kmh 29.96 in1014.6 mb 0.00 in0.0 mm 0.00 in0.0 mm 0.03 in0.8 mm
08:23 AM 54.0°F12.2°C 51.6°F10.9°C 92% 2.2 mph S3.5 kmh S 7.4 mph11.9 kmh 29.97 in1014.9 mb 0.00 in0.0 mm 0.00 in0.0 mm 0.03 in0.8 mm
08:28 AM 54.0°F12.2°C 51.6°F10.9°C 92% 1.6 mph SSE2.6 kmh SSE 5.4 mph8.7 kmh 29.97 in1014.9 mb 0.00 in0.0 mm 0.00 in0.0 mm 0.03 in0.8 mm
08:33 AM 54.0°F12.2°C 51.6°F10.9°C 92% 3.6 mph SW5.8 kmh SW 6.3 mph10.1 kmh 29.97 in1014.9 mb 0.00 in0.0 mm 0.00 in0.0 mm 0.03 in0.8 mm
08:38 AM 54.0°F12.2°C 51.4°F10.8°C 91% 3.8 mph SW6.1 kmh SW 6.3 mph10.1 kmh 29.97 in1014.9 mb 0.00 in0.0 mm 0.00 in0.0 mm 0.03 in0.8 mm
08:43 AM 54.0°F12.2°C 51.4°F10.8°C 91% 2.7 mph SW4.3 kmh SW 5.4 mph8.7 kmh 29.97 in1014.9 mb 0.00 in0.0 mm 0.00 in0.0 mm 0.03 in0.8 mm
08:48 AM 54.1°F12.3°C 51.6°F10.9°C 91% 1.6 mph SW2.6 kmh SW 4.3 mph6.9 kmh 29.97 in1014.9 mb 0.00 in0.0 mm 0.00 in0.0 mm 0.03 in0.8 mm
08:53 AM 54.1°F12.3°C 51.6°F10.9°C 91% 1.3 mph SW2.1 kmh SW 4.3 mph6.9 kmh 29.97 in1014.9 mb 0.00 in0.0 mm 0.00 in0.0 mm 0.03 in0.8 mm
08:58 AM 54.0°F12.2°C 51.1°F10.6°C 90% 2.0 mph WSW3.2 kmh WSW 4.3 mph6.9 kmh 29.98 in1015.2 mb 0.00 in0.0 mm 0.00 in0.0 mm 0.03 in0.8 mm
09:03 AM 53.8°F12.1°C 51.3°F10.7°C 91% Calm Calm 2.0 mph3.2 kmh 29.98 in1015.2 mb 0.00 in0.0 mm 0.00 in0.0 mm 0.03 in0.8 mm
09:08 AM 54.0°F12.2°C 51.4°F10.8°C 91% 1.1 mph SW1.8 kmh SW 3.1 mph5.0 kmh 29.98 in1015.2 mb 0.01 in0.3 mm 0.12 in3.0 mm 0.04 in1.0 mm
09:13 AM 53.8°F12.1°C 51.3°F10.7°C 91% 0.7 mph SW1.1 kmh SW 2.0 mph3.2 kmh 29.98 in1015.2 mb 0.02 in0.5 mm 0.12 in3.0 mm 0.06 in1.5 mm
09:18 AM 54.0°F12.2°C 51.6°F10.9°C 92% 0.4 mph SW0.6 kmh SW 2.0 mph3.2 kmh 29.98 in1015.2 mb 0.03 in0.8 mm 0.12 in3.0 mm 0.06 in1.5 mm
09:23 AM 53.8°F12.1°C 51.4°F10.8°C 92% 0.2 mph SW0.3 kmh SW 3.1 mph5.0 kmh 29.98 in1015.2 mb 0.03 in0.8 mm 0.00 in0.0 mm 0.06 in1.5 mm
09:28 AM 54.0°F12.2°C 51.6°F10.9°C 92% Calm Calm -- 29.98 in1015.2 mb 0.03 in0.8 mm 0.00 in0.0 mm 0.06 in1.5 mm
09:33 AM 54.3°F12.4°C 52.3°F11.3°C 93% Calm Calm -- 29.98 in1015.2 mb 0.03 in0.8 mm 0.00 in0.0 mm 0.06 in1.5 mm
09:38 AM 54.7°F12.6°C 52.7°F11.5°C 93% 0.2 mph SW0.3 kmh SW 1.1 mph1.8 kmh 29.98 in1015.2 mb 0.03 in0.8 mm 0.00 in0.0 mm 0.06 in1.5 mm
09:43 AM 54.7°F12.6°C 52.3°F11.3°C 92% 1.1 mph SW1.8 kmh SW 3.1 mph5.0 kmh 29.98 in1015.2 mb 0.03 in0.8 mm 0.00 in0.0 mm 0.06 in1.5 mm
09:48 AM 54.7°F12.6°C 52.2°F11.2°C 91% 0.9 mph SW1.4 kmh SW 3.1 mph5.0 kmh 29.98 in1015.2 mb 0.03 in0.8 mm 0.00 in0.0 mm 0.06 in1.5 mm
09:53 AM 54.9°F12.7°C 52.9°F11.6°C 93% 0.2 mph SE0.3 kmh SE 1.1 mph1.8 kmh 29.98 in1015.2 mb 0.03 in0.8 mm 0.00 in0.0 mm 0.06 in1.5 mm
09:58 AM 55.4°F13.0°C 53.4°F11.9°C 93% 0.9 mph SW1.4 kmh SW 3.1 mph5.0 kmh 29.98 in1015.2 mb 0.03 in0.8 mm 0.00 in0.0 mm 0.06 in1.5 mm
10:03 AM 55.8°F13.2°C 53.2°F11.8°C 91% Calm Calm 2.0 mph3.2 kmh 29.98 in1015.2 mb 0.03 in0.8 mm 0.00 in0.0 mm 0.06 in1.5 mm
10:08 AM 56.3°F13.5°C 54.0°F12.2°C 92% 1.3 mph SW2.1 kmh SW 5.4 mph8.7 kmh 29.99 in1015.6 mb 0.02 in0.5 mm 0.00 in0.0 mm 0.06 in1.5 mm
10:13 AM 56.1°F13.4°C 53.6°F12.0°C 91% 1.6 mph SW2.6 kmh SW 5.4 mph8.7 kmh 29.99 in1015.6 mb 0.01 in0.3 mm 0.00 in0.0 mm 0.06 in1.5 mm
10:18 AM 56.7°F13.7°C 53.8°F12.1°C 90% 0.7 mph NW1.1 kmh NW 3.1 mph5.0 kmh 29.99 in1015.6 mb 0.00 in0.0 mm 0.00 in0.0 mm 0.06 in1.5 mm
10:23 AM 56.8°F13.8°C 53.6°F12.0°C 89% 0.2 mph WSW0.3 kmh WSW 3.1 mph5.0 kmh 29.98 in1015.2 mb 0.00 in0.0 mm 0.00 in0.0 mm 0.06 in1.5 mm
10:28 AM 57.4°F14.1°C 53.8°F12.1°C 88% 2.9 mph S4.7 kmh S 5.4 mph8.7 kmh 29.99 in1015.6 mb 0.00 in0.0 mm 0.00 in0.0 mm 0.06 in1.5 mm
10:33 AM 58.5°F14.7°C 55.2°F12.9°C 89% 1.1 mph SSW1.8 kmh SSW 5.4 mph8.7 kmh 29.99 in1015.6 mb 0.00 in0.0 mm 0.00 in0.0 mm 0.06 in1.5 mm
10:38 AM 58.8°F14.9°C 54.7°F12.6°C 86% 2.0 mph SSW3.2 kmh SSW 5.4 mph8.7 kmh 29.99 in1015.6 mb 0.00 in0.0 mm 0.00 in0.0 mm 0.06 in1.5 mm
10:43 AM 59.4°F15.2°C 54.5°F12.5°C 84% 3.1 mph SSW5.0 kmh SSW 7.4 mph11.9 kmh 29.99 in1015.6 mb 0.00 in0.0 mm 0.00 in0.0 mm 0.06 in1.5 mm
10:48 AM 59.5°F15.3°C 54.3°F12.4°C 83% 2.2 mph W3.5 kmh W 6.3 mph10.1 kmh 29.99 in1015.6 mb 0.00 in0.0 mm 0.00 in0.0 mm 0.06 in1.5 mm
10:53 AM 58.8°F14.9°C 52.7°F11.5°C 80% 3.4 mph WSW5.5 kmh WSW 7.4 mph11.9 kmh 29.99 in1015.6 mb 0.00 in0.0 mm 0.00 in0.0 mm 0.06 in1.5 mm
10:58 AM 58.5°F14.7°C 52.3°F11.3°C 80% 2.9 mph NW4.7 kmh NW 7.4 mph11.9 kmh 29.99 in1015.6 mb 0.00 in0.0 mm 0.00 in0.0 mm 0.06 in1.5 mm
11:03 AM 58.3°F14.6°C 52.2°F11.2°C 80% 2.0 mph WSW3.2 kmh WSW 6.3 mph10.1 kmh 29.99 in1015.6 mb 0.00 in0.0 mm 0.00 in0.0 mm 0.06 in1.5 mm
11:08 AM 57.9°F14.4°C 51.8°F11.0°C 80% 3.8 mph SW6.1 kmh SW 8.5 mph13.7 kmh 29.99 in1015.6 mb 0.00 in0.0 mm 0.00 in0.0 mm 0.06 in1.5 mm
11:13 AM 57.9°F14.4°C 51.8°F11.0°C 80% 4.7 mph W7.6 kmh W 7.4 mph11.9 kmh 29.99 in1015.6 mb 0.00 in0.0 mm 0.00 in0.0 mm 0.06 in1.5 mm
11:18 AM 57.9°F14.4°C 52.2°F11.2°C 81% 1.3 mph SSW2.1 kmh SSW 4.3 mph6.9 kmh 30.00 in1015.9 mb 0.00 in0.0 mm 0.00 in0.0 mm 0.06 in1.5 mm
11:23 AM 58.1°F14.5°C 52.0°F11.1°C 80% 4.0 mph SSW6.4 kmh SSW 8.5 mph13.7 kmh 30.00 in1015.9 mb 0.00 in0.0 mm 0.00 in0.0 mm 0.06 in1.5 mm
11:28 AM 57.9°F14.4°C 51.8°F11.0°C 80% 2.2 mph SW3.5 kmh SW 7.4 mph11.9 kmh 30.00 in1015.9 mb 0.00 in0.0 mm 0.00 in0.0 mm 0.06 in1.5 mm
11:33 AM 57.9°F14.4°C 51.8°F11.0°C 80% 1.3 mph WSW2.1 kmh WSW 4.3 mph6.9 kmh 30.00 in1015.9 mb 0.00 in0.0 mm 0.00 in0.0 mm 0.06 in1.5 mm
11:38 AM 58.3°F14.6°C 51.8°F11.0°C 79% 2.5 mph SW4.0 kmh SW 5.4 mph8.7 kmh 30.00 in1015.9 mb 0.00 in0.0 mm 0.00 in0.0 mm 0.06 in1.5 mm
11:43 AM 58.5°F14.7°C 52.0°F11.1°C 79% 0.4 mph SSW0.6 kmh SSW 6.3 mph10.1 kmh 30.00 in1015.9 mb 0.00 in0.0 mm 0.00 in0.0 mm 0.06 in1.5 mm
11:48 AM 58.5°F14.7°C 51.6°F10.9°C 78% 3.8 mph SW6.1 kmh SW 6.3 mph10.1 kmh 30.00 in1015.9 mb 0.00 in0.0 mm 0.00 in0.0 mm 0.06 in1.5 mm
11:53 AM 58.5°F14.7°C 51.6°F10.9°C 78% 2.9 mph SSW4.7 kmh SSW 6.3 mph10.1 kmh 30.00 in1015.9 mb 0.00 in0.0 mm 0.00 in0.0 mm 0.06 in1.5 mm
11:58 AM 58.3°F14.6°C 50.7°F10.4°C 76% 6.0 mph SW9.7 kmh SW 9.6 mph15.4 kmh 30.00 in1015.9 mb 0.00 in0.0 mm 0.00 in0.0 mm 0.06 in1.5 mm
12:03 PM 58.3°F14.6°C 50.7°F10.4°C 76% 4.3 mph WSW6.9 kmh WSW 7.4 mph11.9 kmh 30.00 in1015.9 mb 0.00 in0.0 mm 0.00 in0.0 mm 0.06 in1.5 mm
12:08 PM 58.1°F14.5°C 50.2°F10.1°C 75% 4.9 mph SW7.9 kmh SW 9.6 mph15.4 kmh 30.00 in1015.9 mb 0.00 in0.0 mm 0.00 in0.0 mm 0.06 in1.5 mm
12:13 PM 57.9°F14.4°C 49.6°F9.8°C 74% 4.5 mph SSW7.2 kmh SSW 10.5 mph16.9 kmh 30.00 in1015.9 mb 0.00 in0.0 mm 0.00 in0.0 mm 0.06 in1.5 mm
12:18 PM 57.9°F14.4°C 48.9°F9.4°C 72% 5.6 mph SW9.0 kmh SW 10.5 mph16.9 kmh 30.00 in1015.9 mb 0.00 in0.0 mm 0.00 in0.0 mm 0.06 in1.5 mm
12:23 PM 57.9°F14.4°C 48.9°F9.4°C 72% 5.1 mph SSW8.2 kmh SSW 7.4 mph11.9 kmh 30.00 in1015.9 mb 0.00 in0.0 mm 0.00 in0.0 mm 0.06 in1.5 mm
12:28 PM 57.9°F14.4°C 48.9°F9.4°C 72% 4.9 mph SSW7.9 kmh SSW 10.5 mph16.9 kmh 30.00 in1015.9 mb 0.00 in0.0 mm 0.00 in0.0 mm 0.06 in1.5 mm
12:33 PM 57.9°F14.4°C 49.6°F9.8°C 74% 6.0 mph SW9.7 kmh SW 10.5 mph16.9 kmh 30.00 in1015.9 mb 0.00 in0.0 mm 0.00 in0.0 mm 0.06 in1.5 mm
12:38 PM 57.9°F14.4°C 50.0°F10.0°C 75% 4.7 mph SW7.6 kmh SW 9.6 mph15.4 kmh 30.00 in1015.9 mb 0.00 in0.0 mm 0.00 in0.0 mm 0.06 in1.5 mm
12:43 PM 57.9°F14.4°C 49.6°F9.8°C 74% 4.7 mph SW7.6 kmh SW 9.6 mph15.4 kmh 30.00 in1015.9 mb 0.00 in0.0 mm 0.00 in0.0 mm 0.06 in1.5 mm
12:48 PM 57.9°F14.4°C 48.9°F9.4°C 72% 5.6 mph SSW9.0 kmh SSW 10.5 mph16.9 kmh 30.00 in1015.9 mb 0.00 in0.0 mm 0.00 in0.0 mm 0.06 in1.5 mm
12:53 PM 58.1°F14.5°C 49.1°F9.5°C 72% 6.3 mph S10.1 kmh S 9.6 mph15.4 kmh 30.00 in1015.9 mb 0.00 in0.0 mm 0.00 in0.0 mm 0.06 in1.5 mm
12:58 PM 58.1°F14.5°C 48.7°F9.3°C 71% 4.9 mph S7.9 kmh S 9.6 mph15.4 kmh 30.00 in1015.9 mb 0.00 in0.0 mm 0.00 in0.0 mm 0.06 in1.5 mm
01:03 PM 58.1°F14.5°C 48.4°F9.1°C 70% 6.9 mph SW11.1 kmh SW 12.8 mph20.6 kmh 30.01 in1016.3 mb 0.00 in0.0 mm 0.00 in0.0 mm 0.06 in1.5 mm
01:08 PM 58.3°F14.6°C 48.6°F9.2°C 70% 5.6 mph SW9.0 kmh SW 10.5 mph16.9 kmh 30.01 in1016.3 mb 0.00 in0.0 mm 0.00 in0.0 mm 0.06 in1.5 mm
01:13 PM 58.3°F14.6°C 48.6°F9.2°C 70% 4.9 mph WSW7.9 kmh WSW 12.8 mph20.6 kmh 30.01 in1016.3 mb 0.00 in0.0 mm 0.00 in0.0 mm 0.06 in1.5 mm
01:18 PM 58.3°F14.6°C 48.6°F9.2°C 70% 7.6 mph SW12.2 kmh SW 10.5 mph16.9 kmh 30.01 in1016.3 mb 0.00 in0.0 mm 0.00 in0.0 mm 0.06 in1.5 mm
01:23 PM 58.5°F14.7°C 49.1°F9.5°C 71% 2.2 mph S3.5 kmh S 9.6 mph15.4 kmh 30.01 in1016.3 mb 0.00 in0.0 mm 0.00 in0.0 mm 0.06 in1.5 mm
01:28 PM 58.6°F14.8°C 49.3°F9.6°C 71% 5.8 mph SW9.3 kmh SW 11.6 mph18.7 kmh 30.01 in1016.3 mb 0.00 in0.0 mm 0.00 in0.0 mm 0.06 in1.5 mm
01:33 PM 58.8°F14.9°C 49.8°F9.9°C 72% 5.6 mph WSW9.0 kmh WSW 9.6 mph15.4 kmh 30.01 in1016.3 mb 0.00 in0.0 mm 0.00 in0.0 mm 0.06 in1.5 mm
01:38 PM 58.6°F14.8°C 49.3°F9.6°C 71% 4.5 mph SW7.2 kmh SW 12.8 mph20.6 kmh 30.01 in1016.3 mb 0.00 in0.0 mm 0.00 in0.0 mm 0.06 in1.5 mm
01:43 PM 58.5°F14.7°C 49.5°F9.7°C 72% 3.8 mph SW6.1 kmh SW 7.4 mph11.9 kmh 30.01 in1016.3 mb 0.00 in0.0 mm 0.00 in0.0 mm 0.06 in1.5 mm
01:48 PM 58.5°F14.7°C 49.5°F9.7°C 72% 5.4 mph SSW8.7 kmh SSW 13.9 mph22.4 kmh 30.01 in1016.3 mb 0.00 in0.0 mm 0.00 in0.0 mm 0.06 in1.5 mm
01:53 PM 58.3°F14.6°C 49.6°F9.8°C 73% 5.4 mph WSW8.7 kmh WSW 9.6 mph15.4 kmh 30.01 in1016.3 mb 0.00 in0.0 mm 0.00 in0.0 mm 0.06 in1.5 mm
01:58 PM 58.3°F14.6°C 50.0°F10.0°C 74% 5.4 mph S8.7 kmh S 9.6 mph15.4 kmh 30.01 in1016.3 mb 0.00 in0.0 mm 0.00 in0.0 mm 0.06 in1.5 mm
02:03 PM 58.3°F14.6°C 50.0°F10.0°C 74% 2.7 mph WSW4.3 kmh WSW 9.6 mph15.4 kmh 30.01 in1016.3 mb 0.00 in0.0 mm 0.00 in0.0 mm 0.06 in1.5 mm
02:08 PM 58.1°F14.5°C 49.5°F9.7°C 73% 3.6 mph S5.8 kmh S 7.4 mph11.9 kmh 30.00 in1015.9 mb 0.00 in0.0 mm 0.00 in0.0 mm 0.06 in1.5 mm
02:13 PM 58.3°F14.6°C 50.0°F10.0°C 74% 2.5 mph SW4.0 kmh SW 6.3 mph10.1 kmh 30.00 in1015.9 mb 0.00 in0.0 mm 0.00 in0.0 mm 0.06 in1.5 mm
02:18 PM 58.3°F14.6°C 49.6°F9.8°C 73% 2.5 mph SW4.0 kmh SW 5.4 mph8.7 kmh 30.00 in1015.9 mb 0.00 in0.0 mm 0.00 in0.0 mm 0.06 in1.5 mm
02:23 PM 58.5°F14.7°C 48.7°F9.3°C 70% 5.1 mph S8.2 kmh S 9.6 mph15.4 kmh 30.00 in1015.9 mb 0.00 in0.0 mm 0.00 in0.0 mm 0.06 in1.5 mm
02:28 PM 58.6°F14.8°C 48.6°F9.2°C 69% 5.6 mph SSW9.0 kmh SSW 9.6 mph15.4 kmh 30.00 in1015.9 mb 0.00 in0.0 mm 0.00 in0.0 mm 0.06 in1.5 mm
02:33 PM 59.4°F15.2°C 48.7°F9.3°C 68% 4.5 mph SW7.2 kmh SW 9.6 mph15.4 kmh 29.99 in1015.6 mb 0.00 in0.0 mm 0.00 in0.0 mm 0.06 in1.5 mm
02:38 PM 59.9°F15.5°C 48.9°F9.4°C 67% 5.4 mph SW8.7 kmh SW 9.6 mph15.4 kmh 29.99 in1015.6 mb 0.00 in0.0 mm 0.00 in0.0 mm 0.06 in1.5 mm
02:43 PM 60.4°F15.8°C 49.5°F9.7°C 67% 5.8 mph SSW9.3 kmh SSW 9.6 mph15.4 kmh 30.00 in1015.9 mb 0.00 in0.0 mm 0.00 in0.0 mm 0.06 in1.5 mm
02:48 PM 60.3°F15.7°C 48.4°F9.1°C 65% 1.1 mph SW1.8 kmh SW 8.5 mph13.7 kmh 29.99 in1015.6 mb 0.00 in0.0 mm 0.00 in0.0 mm 0.06 in1.5 mm
02:53 PM 60.6°F15.9°C 49.3°F9.6°C 66% 4.9 mph SW7.9 kmh SW 10.5 mph16.9 kmh 29.99 in1015.6 mb 0.00 in0.0 mm 0.00 in0.0 mm 0.06 in1.5 mm
02:58 PM 61.3°F16.3°C 49.5°F9.7°C 65% 4.7 mph SW7.6 kmh SW 10.5 mph16.9 kmh 30.00 in1015.9 mb 0.00 in0.0 mm 0.00 in0.0 mm 0.06 in1.5 mm
03:03 PM 61.3°F16.3°C 49.1°F9.5°C 64% 5.1 mph S8.2 kmh S 12.8 mph20.6 kmh 29.99 in1015.6 mb 0.00 in0.0 mm 0.00 in0.0 mm 0.06 in1.5 mm
03:08 PM 62.1°F16.7°C 49.3°F9.6°C 63% 5.1 mph SW8.2 kmh SW 10.5 mph16.9 kmh 29.99 in1015.6 mb 0.00 in0.0 mm 0.00 in0.0 mm 0.06 in1.5 mm
03:13 PM 61.9°F16.6°C 49.1°F9.5°C 63% 7.2 mph SW11.6 kmh SW 10.5 mph16.9 kmh 29.99 in1015.6 mb 0.00 in0.0 mm 0.00 in0.0 mm 0.06 in1.5 mm
03:18 PM 61.5°F16.4°C 48.4°F9.1°C 62% 6.5 mph SW10.5 kmh SW 10.5 mph16.9 kmh 29.99 in1015.6 mb 0.00 in0.0 mm 0.00 in0.0 mm 0.06 in1.5 mm
03:23 PM 61.0°F16.1°C 48.4°F9.1°C 63% 5.8 mph S9.3 kmh S 9.6 mph15.4 kmh 29.99 in1015.6 mb 0.00 in0.0 mm 0.00 in0.0 mm 0.06 in1.5 mm
03:28 PM 61.3°F16.3°C 48.6°F9.2°C 63% 5.1 mph SW8.2 kmh SW 12.8 mph20.6 kmh 29.99 in1015.6 mb 0.00 in0.0 mm 0.00 in0.0 mm 0.06 in1.5 mm
03:33 PM 62.1°F16.7°C 50.2°F10.1°C 65% 4.7 mph SSE7.6 kmh SSE 9.6 mph15.4 kmh 30.00 in1015.9 mb 0.00 in0.0 mm 0.00 in0.0 mm 0.06 in1.5 mm
03:38 PM 62.6°F17.0°C 49.5°F9.7°C 62% 5.8 mph SW9.3 kmh SW 10.5 mph16.9 kmh 30.00 in1015.9 mb 0.00 in0.0 mm 0.00 in0.0 mm 0.06 in1.5 mm
03:43 PM 61.9°F16.6°C 48.7°F9.3°C 62% 5.4 mph SSW8.7 kmh SSW 8.5 mph13.7 kmh 30.00 in1015.9 mb 0.00 in0.0 mm 0.00 in0.0 mm 0.06 in1.5 mm
03:48 PM 61.9°F16.6°C 48.7°F9.3°C 62% 7.8 mph SSW12.6 kmh SSW 11.6 mph18.7 kmh 30.00 in1015.9 mb 0.00 in0.0 mm 0.00 in0.0 mm 0.06 in1.5 mm
03:53 PM 61.7°F16.5°C 48.6°F9.2°C 62% 6.5 mph SW10.5 kmh SW 10.5 mph16.9 kmh 30.00 in1015.9 mb 0.00 in0.0 mm 0.00 in0.0 mm 0.06 in1.5 mm
03:58 PM 61.2°F16.2°C 48.0°F8.9°C 62% 4.0 mph WSW6.4 kmh WSW 11.6 mph18.7 kmh 30.01 in1016.3 mb 0.00 in0.0 mm 0.00 in0.0 mm 0.06 in1.5 mm
04:03 PM 60.6°F15.9°C 48.4°F9.1°C 64% 4.7 mph WSW7.6 kmh WSW 8.5 mph13.7 kmh 30.01 in1016.3 mb 0.00 in0.0 mm 0.00 in0.0 mm 0.06 in1.5 mm
04:08 PM 60.3°F15.7°C 48.9°F9.4°C 66% 5.4 mph SW8.7 kmh SW 11.6 mph18.7 kmh 30.01 in1016.3 mb 0.00 in0.0 mm 0.00 in0.0 mm 0.06 in1.5 mm
04:13 PM 60.1°F15.6°C 49.1°F9.5°C 67% 4.5 mph W7.2 kmh W 7.4 mph11.9 kmh 30.01 in1016.3 mb 0.00 in0.0 mm 0.00 in0.0 mm 0.06 in1.5 mm
04:18 PM 59.9°F15.5°C 49.6°F9.8°C 69% 5.8 mph WSW9.3 kmh WSW 9.6 mph15.4 kmh 30.01 in1016.3 mb 0.00 in0.0 mm 0.00 in0.0 mm 0.06 in1.5 mm
04:23 PM 59.5°F15.3°C 49.3°F9.6°C 69% 2.5 mph SW4.0 kmh SW 6.3 mph10.1 kmh 30.02 in1016.6 mb 0.00 in0.0 mm 0.00 in0.0 mm 0.06 in1.5 mm
04:28 PM 59.5°F15.3°C 49.3°F9.6°C 69% 1.8 mph NNW2.9 kmh NNW 5.4 mph8.7 kmh 30.02 in1016.6 mb 0.00 in0.0 mm 0.00 in0.0 mm 0.06 in1.5 mm
04:33 PM 59.2°F15.1°C 49.5°F9.7°C 70% 3.1 mph WSW5.0 kmh WSW 9.6 mph15.4 kmh 30.02 in1016.6 mb 0.00 in0.0 mm 0.00 in0.0 mm 0.06 in1.5 mm
04:38 PM 59.2°F15.1°C 49.5°F9.7°C 70% 1.8 mph WSW2.9 kmh WSW 5.4 mph8.7 kmh 30.02 in1016.6 mb 0.00 in0.0 mm 0.00 in0.0 mm 0.06 in1.5 mm
04:43 PM 59.5°F15.3°C 49.8°F9.9°C 70% 2.2 mph SW3.5 kmh SW 5.4 mph8.7 kmh 30.02 in1016.6 mb 0.00 in0.0 mm 0.00 in0.0 mm 0.06 in1.5 mm
04:48 PM 59.5°F15.3°C 49.8°F9.9°C 70% 2.7 mph SSW4.3 kmh SSW 5.4 mph8.7 kmh 30.02 in1016.6 mb 0.00 in0.0 mm 0.00 in0.0 mm 0.06 in1.5 mm
04:53 PM 59.5°F15.3°C 49.3°F9.6°C 69% 0.7 mph WSW1.1 kmh WSW 6.3 mph10.1 kmh 30.02 in1016.6 mb 0.00 in0.0 mm 0.00 in0.0 mm 0.06 in1.5 mm
04:58 PM 59.5°F15.3°C 49.3°F9.6°C 69% 4.0 mph WSW6.4 kmh WSW 7.4 mph11.9 kmh 30.02 in1016.6 mb 0.00 in0.0 mm 0.00 in0.0 mm 0.06 in1.5 mm
05:03 PM 59.4°F15.2°C 49.1°F9.5°C 69% 3.4 mph SW5.5 kmh SW 6.3 mph10.1 kmh 30.02 in1016.6 mb 0.00 in0.0 mm 0.00 in0.0 mm 0.06 in1.5 mm
05:08 PM 59.2°F15.1°C 49.5°F9.7°C 70% 2.7 mph SW4.3 kmh SW 8.5 mph13.7 kmh 30.02 in1016.6 mb 0.00 in0.0 mm 0.00 in0.0 mm 0.06 in1.5 mm
05:13 PM 59.0°F15.0°C 49.6°F9.8°C 71% 3.6 mph WSW5.8 kmh WSW 9.6 mph15.4 kmh 30.03 in1016.9 mb 0.00 in0.0 mm 0.00 in0.0 mm 0.06 in1.5 mm
05:18 PM 58.6°F14.8°C 49.6°F9.8°C 72% 3.4 mph WNW5.5 kmh WNW 7.4 mph11.9 kmh 30.03 in1016.9 mb 0.00 in0.0 mm 0.00 in0.0 mm 0.06 in1.5 mm
05:23 PM 58.6°F14.8°C 50.0°F10.0°C 73% 3.8 mph WSW6.1 kmh WSW 9.6 mph15.4 kmh 30.03 in1016.9 mb 0.00 in0.0 mm 0.00 in0.0 mm 0.06 in1.5 mm
05:28 PM 58.8°F14.9°C 50.2°F10.1°C 73% 3.1 mph SW5.0 kmh SW 6.3 mph10.1 kmh 30.03 in1016.9 mb 0.00 in0.0 mm 0.00 in0.0 mm 0.06 in1.5 mm
05:33 PM 59.2°F15.1°C 49.8°F9.9°C 71% 4.0 mph SW6.4 kmh SW 9.6 mph15.4 kmh 30.03 in1016.9 mb 0.00 in0.0 mm 0.00 in0.0 mm 0.06 in1.5 mm
05:38 PM 59.2°F15.1°C 49.8°F9.9°C 71% 3.8 mph NW6.1 kmh NW 7.4 mph11.9 kmh 30.03 in1016.9 mb 0.00 in0.0 mm 0.00 in0.0 mm 0.06 in1.5 mm
05:43 PM 59.2°F15.1°C 49.8°F9.9°C 71% 1.1 mph WSW1.8 kmh WSW 6.3 mph10.1 kmh 30.03 in1016.9 mb 0.00 in0.0 mm 0.00 in0.0 mm 0.06 in1.5 mm
05:48 PM 59.5°F15.3°C 49.8°F9.9°C 70% 2.7 mph WSW4.3 kmh WSW 4.3 mph6.9 kmh 30.03 in1016.9 mb 0.00 in0.0 mm 0.00 in0.0 mm 0.06 in1.5 mm
05:53 PM 59.5°F15.3°C 49.8°F9.9°C 70% 3.4 mph W5.5 kmh W 6.3 mph10.1 kmh 30.03 in1016.9 mb 0.00 in0.0 mm 0.00 in0.0 mm 0.06 in1.5 mm
05:58 PM 59.4°F15.2°C 50.0°F10.0°C 71% 0.7 mph SW1.1 kmh SW 7.4 mph11.9 kmh 30.04 in1017.3 mb 0.00 in0.0 mm 0.00 in0.0 mm 0.06 in1.5 mm
06:03 PM 59.2°F15.1°C 49.5°F9.7°C 70% 2.0 mph WNW3.2 kmh WNW 5.4 mph8.7 kmh 30.04 in1017.3 mb 0.00 in0.0 mm 0.00 in0.0 mm 0.06 in1.5 mm
06:08 PM 58.8°F14.9°C 49.5°F9.7°C 71% 3.1 mph SW5.0 kmh SW 5.4 mph8.7 kmh 30.04 in1017.3 mb 0.00 in0.0 mm 0.00 in0.0 mm 0.06 in1.5 mm
06:13 PM 58.6°F14.8°C 49.6°F9.8°C 72% 2.5 mph SW4.0 kmh SW 5.4 mph8.7 kmh 30.04 in1017.3 mb 0.00 in0.0 mm 0.00 in0.0 mm 0.06 in1.5 mm
06:18 PM 58.3°F14.6°C 49.6°F9.8°C 73% 4.3 mph W6.9 kmh W 6.3 mph10.1 kmh 30.04 in1017.3 mb 0.00 in0.0 mm 0.00 in0.0 mm 0.06 in1.5 mm
06:23 PM 57.9°F14.4°C 49.6°F9.8°C 74% 2.7 mph WSW4.3 kmh WSW 5.4 mph8.7 kmh 30.04 in1017.3 mb 0.00 in0.0 mm 0.00 in0.0 mm 0.06 in1.5 mm
06:28 PM 57.6°F14.2°C 49.6°F9.8°C 75% 2.9 mph WNW4.7 kmh WNW 7.4 mph11.9 kmh 30.04 in1017.3 mb 0.00 in0.0 mm 0.00 in0.0 mm 0.06 in1.5 mm
06:33 PM 57.4°F14.1°C 49.5°F9.7°C 75% 1.8 mph WNW2.9 kmh WNW 5.4 mph8.7 kmh 30.04 in1017.3 mb 0.00 in0.0 mm 0.00 in0.0 mm 0.06 in1.5 mm
06:38 PM 57.4°F14.1°C 49.8°F9.9°C 76% 2.0 mph WSW3.2 kmh WSW 5.4 mph8.7 kmh 30.05 in1017.6 mb 0.00 in0.0 mm 0.00 in0.0 mm 0.06 in1.5 mm
06:43 PM 57.2°F14.0°C 49.6°F9.8°C 76% 0.9 mph NW1.4 kmh NW 3.1 mph5.0 kmh 30.06 in1017.9 mb 0.00 in0.0 mm 0.00 in0.0 mm 0.06 in1.5 mm
06:48 PM 57.0°F13.9°C 49.8°F9.9°C 77% 2.2 mph W3.5 kmh W 5.4 mph8.7 kmh 30.06 in1017.9 mb 0.00 in0.0 mm 0.00 in0.0 mm 0.06 in1.5 mm
06:53 PM 57.0°F13.9°C 49.8°F9.9°C 77% 2.7 mph NW4.3 kmh NW 5.4 mph8.7 kmh 30.06 in1017.9 mb 0.00 in0.0 mm 0.00 in0.0 mm 0.06 in1.5 mm
06:58 PM 56.8°F13.8°C 49.6°F9.8°C 77% 1.3 mph W2.1 kmh W 4.3 mph6.9 kmh 30.06 in1017.9 mb 0.00 in0.0 mm 0.00 in0.0 mm 0.06 in1.5 mm
07:03 PM 56.8°F13.8°C 50.0°F10.0°C 78% Calm Calm 4.3 mph6.9 kmh 30.06 in1017.9 mb 0.00 in0.0 mm 0.00 in0.0 mm 0.06 in1.5 mm
07:08 PM 56.8°F13.8°C 50.0°F10.0°C 78% 0.9 mph NW1.4 kmh NW 4.3 mph6.9 kmh 30.07 in1018.3 mb 0.00 in0.0 mm 0.00 in0.0 mm 0.06 in1.5 mm
07:13 PM 56.8°F13.8°C 50.0°F10.0°C 78% 1.3 mph NW2.1 kmh NW 4.3 mph6.9 kmh 30.07 in1018.3 mb 0.00 in0.0 mm 0.00 in0.0 mm 0.06 in1.5 mm
07:18 PM 56.7°F13.7°C 49.8°F9.9°C 78% 0.7 mph WNW1.1 kmh WNW 3.1 mph5.0 kmh 30.07 in1018.3 mb 0.00 in0.0 mm 0.00 in0.0 mm 0.06 in1.5 mm
07:23 PM 56.7°F13.7°C 49.8°F9.9°C 78% 1.3 mph W2.1 kmh W 4.3 mph6.9 kmh 30.07 in1018.3 mb 0.00 in0.0 mm 0.00 in0.0 mm 0.06 in1.5 mm
07:28 PM 56.7°F13.7°C 50.2°F10.1°C 79% 2.9 mph NW4.7 kmh NW 5.4 mph8.7 kmh 30.07 in1018.3 mb 0.00 in0.0 mm 0.00 in0.0 mm 0.06 in1.5 mm
07:33 PM 56.7°F13.7°C 50.2°F10.1°C 79% 2.2 mph NNW3.5 kmh NNW 4.3 mph6.9 kmh 30.07 in1018.3 mb 0.00 in0.0 mm 0.00 in0.0 mm 0.06 in1.5 mm
07:38 PM 56.7°F13.7°C 50.2°F10.1°C 79% 0.2 mph NNW0.3 kmh NNW 2.0 mph3.2 kmh 30.07 in1018.3 mb 0.00 in0.0 mm 0.00 in0.0 mm 0.06 in1.5 mm
07:43 PM 56.5°F13.6°C 50.4°F10.2°C 80% 0.4 mph NW0.6 kmh NW 3.1 mph5.0 kmh 30.08 in1018.6 mb 0.00 in0.0 mm 0.00 in0.0 mm 0.06 in1.5 mm
07:48 PM 56.5°F13.6°C 50.4°F10.2°C 80% 0.7 mph WNW1.1 kmh WNW 3.1 mph5.0 kmh 30.08 in1018.6 mb 0.00 in0.0 mm 0.00 in0.0 mm 0.06 in1.5 mm
07:53 PM 56.3°F13.5°C 50.2°F10.1°C 80% 0.7 mph WNW1.1 kmh WNW 3.1 mph5.0 kmh 30.08 in1018.6 mb 0.00 in0.0 mm 0.00 in0.0 mm 0.06 in1.5 mm
07:58 PM 56.1°F13.4°C 50.0°F10.0°C 80% 2.2 mph NW3.5 kmh NW 4.3 mph6.9 kmh 30.08 in1018.6 mb 0.00 in0.0 mm 0.00 in0.0 mm 0.06 in1.5 mm
08:03 PM 56.1°F13.4°C 50.0°F10.0°C 80% 2.5 mph NW4.0 kmh NW 5.4 mph8.7 kmh 30.08 in1018.6 mb 0.00 in0.0 mm 0.00 in0.0 mm 0.06 in1.5 mm
08:08 PM 56.1°F13.4°C 50.4°F10.2°C 81% 1.1 mph WNW1.8 kmh WNW 3.1 mph5.0 kmh 30.09 in1019.0 mb 0.00 in0.0 mm 0.00 in0.0 mm 0.06 in1.5 mm
08:13 PM 55.9°F13.3°C 50.2°F10.1°C 81% Calm Calm 2.0 mph3.2 kmh 30.08 in1018.6 mb 0.00 in0.0 mm 0.00 in0.0 mm 0.06 in1.5 mm
08:18 PM 55.9°F13.3°C 50.2°F10.1°C 81% Calm Calm 1.1 mph1.8 kmh 30.09 in1019.0 mb 0.00 in0.0 mm 0.00 in0.0 mm 0.06 in1.5 mm
08:23 PM 55.9°F13.3°C 50.2°F10.1°C 81% Calm Calm -- 30.09 in1019.0 mb 0.00 in0.0 mm 0.00 in0.0 mm 0.06 in1.5 mm
08:28 PM 55.8°F13.2°C 50.0°F10.0°C 81% 0.2 mph NW0.3 kmh NW 1.1 mph1.8 kmh 30.09 in1019.0 mb 0.00 in0.0 mm 0.00 in0.0 mm 0.06 in1.5 mm
08:33 PM 55.6°F13.1°C 50.2°F10.1°C 82% 0.7 mph NW1.1 kmh NW 2.0 mph3.2 kmh 30.09 in1019.0 mb 0.00 in0.0 mm 0.00 in0.0 mm 0.06 in1.5 mm
08:38 PM 55.6°F13.1°C 50.2°F10.1°C 82% 0.4 mph NW0.6 kmh NW 2.0 mph3.2 kmh 30.09 in1019.0 mb 0.00 in0.0 mm 0.00 in0.0 mm 0.06 in1.5 mm
08:43 PM 55.4°F13.0°C 50.0°F10.0°C 82% Calm Calm 1.1 mph1.8 kmh 30.09 in1019.0 mb 0.00 in0.0 mm 0.00 in0.0 mm 0.06 in1.5 mm
08:48 PM 55.2°F12.9°C 50.2°F10.1°C 83% Calm Calm -- 30.09 in1019.0 mb 0.00 in0.0 mm 0.00 in0.0 mm 0.06 in1.5 mm
08:53 PM 55.0°F12.8°C 50.0°F10.0°C 83% 0.4 mph WNW0.6 kmh WNW 1.1 mph1.8 kmh 30.09 in1019.0 mb 0.00 in0.0 mm 0.00 in0.0 mm 0.06 in1.5 mm
08:58 PM 55.0°F12.8°C 50.0°F10.0°C 83% Calm Calm 1.1 mph1.8 kmh 30.10 in1019.3 mb 0.00 in0.0 mm 0.00 in0.0 mm 0.06 in1.5 mm
09:03 PM 54.9°F12.7°C 49.8°F9.9°C 83% Calm Calm 2.0 mph3.2 kmh 30.10 in1019.3 mb 0.00 in0.0 mm 0.00 in0.0 mm 0.06 in1.5 mm
09:08 PM 54.7°F12.6°C 50.0°F10.0°C 84% Calm Calm -- 30.10 in1019.3 mb 0.00 in0.0 mm 0.00 in0.0 mm 0.06 in1.5 mm
09:13 PM 54.7°F12.6°C 50.0°F10.0°C 84% Calm Calm 1.1 mph1.8 kmh 30.11 in1019.6 mb 0.00 in0.0 mm 0.00 in0.0 mm 0.06 in1.5 mm
09:18 PM 54.7°F12.6°C 50.0°F10.0°C 84% 0.2 mph NW0.3 kmh NW 1.1 mph1.8 kmh 30.11 in1019.6 mb 0.00 in0.0 mm 0.00 in0.0 mm 0.06 in1.5 mm
09:23 PM 54.7°F12.6°C 50.0°F10.0°C 84% Calm Calm 1.1 mph1.8 kmh 30.10 in1019.3 mb 0.00 in0.0 mm 0.00 in0.0 mm 0.06 in1.5 mm
09:28 PM 54.7°F12.6°C 50.0°F10.0°C 84% Calm Calm 1.1 mph1.8 kmh 30.10 in1019.3 mb 0.00 in0.0 mm 0.00 in0.0 mm 0.06 in1.5 mm
09:33 PM 54.7°F12.6°C 50.0°F10.0°C 84% 0.2 mph NNW0.3 kmh NNW 1.1 mph1.8 kmh 30.10 in1019.3 mb 0.00 in0.0 mm 0.00 in0.0 mm 0.06 in1.5 mm
09:38 PM 54.7°F12.6°C 50.0°F10.0°C 84% Calm Calm -- 30.10 in1019.3 mb 0.00 in0.0 mm 0.00 in0.0 mm 0.06 in1.5 mm
09:43 PM 54.5°F12.5°C 49.8°F9.9°C 84% 0.4 mph NW0.6 kmh NW 1.1 mph1.8 kmh 30.10 in1019.3 mb 0.00 in0.0 mm 0.00 in0.0 mm 0.06 in1.5 mm
09:48 PM 54.5°F12.5°C 49.8°F9.9°C 84% Calm Calm -- 30.10 in1019.3 mb 0.00 in0.0 mm 0.00 in0.0 mm 0.06 in1.5 mm
09:53 PM 54.3°F12.4°C 49.6°F9.8°C 84% Calm Calm -- 30.10 in1019.3 mb 0.00 in0.0 mm 0.00 in0.0 mm 0.06 in1.5 mm
09:58 PM 54.3°F12.4°C 49.6°F9.8°C 84% Calm Calm -- 30.10 in1019.3 mb 0.00 in0.0 mm 0.00 in0.0 mm 0.06 in1.5 mm
10:03 PM 54.3°F12.4°C 49.8°F9.9°C 85% Calm Calm 1.1 mph1.8 kmh 30.11 in1019.6 mb 0.00 in0.0 mm 0.00 in0.0 mm 0.06 in1.5 mm
10:08 PM 54.1°F12.3°C 49.8°F9.9°C 85% Calm Calm -- 30.10 in1019.3 mb 0.00 in0.0 mm 0.00 in0.0 mm 0.06 in1.5 mm
10:13 PM 54.1°F12.3°C 49.8°F9.9°C 85% Calm Calm -- 30.10 in1019.3 mb 0.00 in0.0 mm 0.00 in0.0 mm 0.06 in1.5 mm
10:18 PM 54.1°F12.3°C 49.8°F9.9°C 85% Calm Calm -- 30.10 in1019.3 mb 0.00 in0.0 mm 0.00 in0.0 mm 0.06 in1.5 mm
10:23 PM 54.1°F12.3°C 49.8°F9.9°C 85% Calm Calm -- 30.10 in1019.3 mb 0.00 in0.0 mm 0.00 in0.0 mm 0.06 in1.5 mm
10:28 PM 54.1°F12.3°C 49.8°F9.9°C 85% Calm Calm -- 30.10 in1019.3 mb 0.00 in0.0 mm 0.00 in0.0 mm 0.06 in1.5 mm
10:33 PM 54.1°F12.3°C 49.8°F9.9°C 85% Calm Calm -- 30.10 in1019.3 mb 0.00 in0.0 mm 0.00 in0.0 mm 0.06 in1.5 mm
10:38 PM 54.0°F12.2°C 49.6°F9.8°C 85% Calm Calm -- 30.09 in1019.0 mb 0.00 in0.0 mm 0.00 in0.0 mm 0.06 in1.5 mm
10:43 PM 53.8°F12.1°C 49.5°F9.7°C 85% Calm Calm -- 30.09 in1019.0 mb 0.00 in0.0 mm 0.00 in0.0 mm 0.06 in1.5 mm
10:48 PM 53.6°F12.0°C 49.3°F9.6°C 85% Calm Calm -- 30.09 in1019.0 mb 0.00 in0.0 mm 0.00 in0.0 mm 0.06 in1.5 mm
10:53 PM 53.4°F11.9°C 49.3°F9.6°C 86% Calm Calm -- 30.09 in1019.0 mb 0.00 in0.0 mm 0.00 in0.0 mm 0.06 in1.5 mm
10:58 PM 53.2°F11.8°C 49.1°F9.5°C 86% Calm Calm -- 30.09 in1019.0 mb 0.00 in0.0 mm 0.00 in0.0 mm 0.06 in1.5 mm
11:03 PM 53.2°F11.8°C 49.1°F9.5°C 86% Calm Calm -- 30.09 in1019.0 mb 0.00 in0.0 mm 0.00 in0.0 mm 0.06 in1.5 mm
11:08 PM 53.1°F11.7°C 48.9°F9.4°C 86% Calm Calm -- 30.09 in1019.0 mb 0.00 in0.0 mm 0.00 in0.0 mm 0.06 in1.5 mm
11:13 PM 52.9°F11.6°C 49.1°F9.5°C 87% Calm Calm -- 30.09 in1019.0 mb 0.00 in0.0 mm 0.00 in0.0 mm 0.06 in1.5 mm
11:18 PM 52.9°F11.6°C 49.1°F9.5°C 87% Calm Calm -- 30.10 in1019.3 mb 0.00 in0.0 mm 0.00 in0.0 mm 0.06 in1.5 mm
11:23 PM 52.5°F11.4°C 48.7°F9.3°C 87% Calm Calm -- 30.10 in1019.3 mb 0.00 in0.0 mm 0.00 in0.0 mm 0.06 in1.5 mm
11:28 PM 52.3°F11.3°C 48.6°F9.2°C 87% Calm Calm -- 30.10 in1019.3 mb 0.00 in0.0 mm 0.00 in0.0 mm 0.06 in1.5 mm
11:33 PM 52.2°F11.2°C 48.7°F9.3°C 88% Calm Calm -- 30.10 in1019.3 mb 0.00 in0.0 mm 0.00 in0.0 mm 0.06 in1.5 mm
11:38 PM 52.2°F11.2°C 48.7°F9.3°C 88% Calm Calm -- 30.10 in1019.3 mb 0.00 in0.0 mm 0.00 in0.0 mm 0.06 in1.5 mm
11:43 PM 52.2°F11.2°C 48.7°F9.3°C 88% Calm Calm -- 30.09 in1019.0 mb 0.00 in0.0 mm 0.00 in0.0 mm 0.06 in1.5 mm
11:48 PM 52.2°F11.2°C 48.7°F9.3°C 88% Calm Calm -- 30.09 in1019.0 mb 0.00 in0.0 mm 0.00 in0.0 mm 0.06 in1.5 mm
11:53 PM 52.2°F11.2°C 48.7°F9.3°C 88% Calm Calm -- 30.09 in1019.0 mb 0.00 in0.0 mm 0.00 in0.0 mm 0.06 in1.5 mm
11:58 PM 52.2°F11.2°C 49.1°F9.5°C 89% Calm Calm -- 30.09 in1019.0 mb 0.00 in0.0 mm 0.00 in0.0 mm 0.06 in1.5 mm